Time;durP1;ratioP1;P1;durP2;ratioP2;P2;SDS_P1;SDS_P2;PMS_P1;PMS_P2;Temp;Humidity;BMP_temperature;BMP_pressure;BME280_temperature;BME280_humidity;BME280_pressure;Samples;Min_cycle;Max_cycle;Signal;HPM_P1;HPM_P2
2023/07/13 00:01:59;;;;;;;11.15;2.55;;;;;;;20.40;79.04;100526.47;10371830;28;20084;-70
2023/07/13 00:07:00;;;;;;;10.07;2.40;;;;;;;20.33;79.58;100536.50;10370946;28;20061;-70
2023/07/13 00:12:01;;;;;;;7.63;2.40;;;;;;;20.25;79.99;100526.00;10371107;28;20048;-70
2023/07/13 00:17:02;;;;;;;8.80;2.60;;;;;;;20.26;80.65;100536.59;10370372;28;20042;-70
2023/07/13 00:22:03;;;;;;;3.30;2.00;;;;;;;20.21;80.83;100528.34;10371236;28;20409;-70
2023/07/13 00:27:04;;;;;;;6.07;2.55;;;;;;;19.96;81.14;100509.56;10370729;28;20045;-70
2023/07/13 00:32:07;;;;;;;7.25;2.92;;;;;;;20.04;81.95;100527.31;10371037;28;20065;-70
2023/07/13 00:37:07;;;;;;;5.10;2.53;;;;;;;20.05;81.04;100537.88;10370618;28;20045;-70
2023/07/13 00:42:09;;;;;;;5.80;2.25;;;;;;;19.34;80.67;100420.69;10370040;28;20056;-69
2023/07/13 00:47:09;;;;;;;3.97;2.50;;;;;;;20.13;80.55;100552.91;10370166;28;20046;-70
2023/07/13 00:52:10;;;;;;;5.03;2.50;;;;;;;20.11;80.92;100548.81;10368031;28;20052;-70
2023/07/13 00:57:16;;;;;;;8.73;2.53;;;;;;;20.06;82.29;100563.78;10370024;28;20042;-70
2023/07/13 01:02:17;;;;;;;6.38;2.53;;;;;;;20.06;81.78;100565.66;10369560;28;20037;-70
2023/07/13 01:07:19;;;;;;;8.25;2.30;;;;;;;20.01;82.07;100558.28;10369965;28;20041;-70
2023/07/13 01:12:19;;;;;;;4.90;2.65;;;;;;;19.55;82.18;100486.78;10369843;28;20548;-70
2023/07/13 01:17:20;;;;;;;13.43;2.67;;;;;;;19.59;82.77;100493.38;10366955;28;20049;-66
2023/07/13 01:22:26;;;;;;;7.15;2.72;;;;;;;19.93;82.87;100549.66;10368724;28;20042;-66
2023/07/13 01:27:27;;;;;;;16.35;3.30;;;;;;;19.85;82.95;100542.66;10368659;28;20061;-67
2023/07/13 01:32:28;;;;;;;17.13;3.42;;;;;;;19.80;83.55;100558.69;10368293;28;20066;-66
2023/07/13 01:37:33;;;;;;;9.85;2.92;;;;;;;19.70;83.84;100558.38;10367770;28;20497;-66
2023/07/13 01:42:33;;;;;;;10.43;2.67;;;;;;;19.81;84.14;100576.53;10367982;28;20046;-66
2023/07/13 01:47:34;;;;;;;14.20;3.40;;;;;;;19.71;84.26;100560.03;10367899;28;20045;-66
2023/07/13 01:52:35;;;;;;;10.73;2.58;;;;;;;19.37;84.48;100500.22;10368260;28;20417;-66
2023/07/13 01:57:36;;;;;;;5.95;2.40;;;;;;;19.80;85.10;100570.31;10367960;28;20042;-66
2023/07/13 02:02:36;;;;;;;8.73;2.70;;;;;;;19.86;84.76;100567.75;10367220;28;20414;-66
2023/07/13 02:07:38;;;;;;;7.15;2.85;;;;;;;19.44;84.51;100484.81;10367342;28;20124;-66
2023/07/13 02:12:40;;;;;;;5.47;2.40;;;;;;;19.82;84.44;100556.59;10367447;28;20042;-66
2023/07/13 02:17:41;;;;;;;7.97;2.63;;;;;;;19.47;84.58;100497.84;10367379;28;20091;-66
2023/07/13 02:22:41;;;;;;;11.20;3.60;;;;;;;19.89;84.59;100576.22;10366435;28;20489;-66
2023/07/13 02:27:42;;;;;;;8.75;2.90;;;;;;;19.64;84.80;100521.53;10366589;28;20050;-66
2023/07/13 02:32:44;;;;;;;13.68;2.70;;;;;;;20.24;84.31;100594.50;10367109;28;20069;-67
2023/07/13 02:37:45;;;;;;;8.00;2.65;;;;;;;20.63;83.27;100592.38;10365904;28;20045;-66
2023/07/13 02:42:45;;;;;;;14.85;2.92;;;;;;;21.10;81.78;100601.47;10365727;28;20090;-66
2023/07/13 02:47:46;;;;;;;7.63;2.92;;;;;;;21.16;79.78;100545.72;10366638;28;20076;-66
2023/07/13 02:52:47;;;;;;;10.68;3.92;;;;;;;21.35;79.47;100593.16;10366617;28;20065;-67
2023/07/13 02:57:48;;;;;;;9.32;3.70;;;;;;;21.35;78.93;100598.56;10366659;28;20042;-66
2023/07/13 03:02:49;;;;;;;6.47;4.30;;;;;;;21.19;78.49;100601.97;10365544;28;20098;-67
2023/07/13 03:07:50;;;;;;;14.07;4.85;;;;;;;20.90;78.73;100596.38;10366158;28;20124;-66
2023/07/13 03:12:51;;;;;;;22.40;5.20;;;;;;;20.65;78.75;100587.59;10365891;28;20038;-67
2023/07/13 03:17:52;;;;;;;15.02;5.97;;;;;;;20.65;77.87;100614.59;10365564;28;20046;-66
2023/07/13 03:22:53;;;;;;;17.08;5.70;;;;;;;20.10;77.95;100530.97;10365377;28;20041;-67
2023/07/13 03:27:54;;;;;;;11.38;5.70;;;;;;;20.58;77.63;100611.13;10366047;28;20042;-66
2023/07/13 03:32:54;;;;;;;13.52;6.18;;;;;;;20.61;77.32;100618.78;10365673;28;20064;-66
2023/07/13 03:37:56;;;;;;;16.10;6.00;;;;;;;20.77;77.26;100625.44;10365075;28;20416;-66
2023/07/13 03:42:57;;;;;;;11.57;5.32;;;;;;;20.92;76.83;100628.56;10365115;28;20038;-66
2023/07/13 03:47:57;;;;;;;10.90;5.70;;;;;;;20.58;76.63;100554.47;10365189;28;20406;-66
2023/07/13 03:53:00;;;;;;;10.40;5.05;;;;;;;21.10;76.94;100642.00;10367130;28;20067;-66
2023/07/13 03:58:31;;;;;;;8.63;4.82;;;;;;;21.51;76.69;100642.22;10371250;28;20046;-67
2023/07/13 04:03:33;;;;;;;12.30;4.72;;;;;;;21.76;74.86;100642.84;10368657;28;20598;-66
2023/07/13 04:08:36;;;;;;;8.98;5.15;;;;;;;21.77;75.56;100655.31;10367396;28;20143;-67
2023/07/13 04:13:37;;;;;;;12.40;4.97;;;;;;;21.69;75.57;100633.19;10370184;28;20045;-66
2023/07/13 04:18:38;;;;;;;14.27;4.57;;;;;;;22.31;73.69;100633.53;10368374;28;20507;-66
2023/07/13 04:23:39;;;;;;;7.88;4.18;;;;;;;22.76;73.00;100640.94;10366428;28;20445;-65
2023/07/13 04:28:40;;;;;;;11.63;4.00;;;;;;;23.20;71.47;100633.94;10367002;28;20497;-66
2023/07/13 04:33:41;;;;;;;9.38;3.80;;;;;;;23.51;69.64;100642.56;10371047;28;20166;-66
2023/07/13 04:38:43;;;;;;;9.07;3.35;;;;;;;23.72;67.85;100622.03;10368895;28;20578;-64
2023/07/13 04:43:43;;;;;;;6.30;3.20;;;;;;;23.19;67.25;100583.50;10370217;28;20136;-62
2023/07/13 04:48:44;;;;;;;8.43;2.70;;;;;;;23.35;67.34;100644.22;10369901;28;20404;-66
2023/07/13 04:53:45;;;;;;;7.47;2.40;;;;;;;23.53;67.72;100643.16;10366554;28;20046;-67
2023/07/13 04:58:46;;;;;;;6.15;2.90;;;;;;;23.47;66.99;100620.56;10366838;28;20045;-66
2023/07/13 05:03:47;;;;;;;10.02;2.97;;;;;;;23.38;66.65;100604.94;10367945;28;20387;-65
2023/07/13 05:08:47;;;;;;;6.70;2.60;;;;;;;23.59;66.38;100644.88;10369058;28;20083;-66
2023/07/13 05:13:48;;;;;;;4.40;2.15;;;;;;;25.13;63.30;100653.19;10369169;28;20053;-66
2023/07/13 05:18:49;;;;;;;11.43;2.63;;;;;;;26.01;60.78;100646.56;10368667;28;20049;-66
2023/07/13 05:23:50;;;;;;;4.75;2.50;;;;;;;26.31;58.98;100643.16;10368874;28;20502;-65
2023/07/13 05:28:50;;;;;;;3.80;2.45;;;;;;;26.08;59.94;100633.50;10368314;28;20056;-66
2023/07/13 05:33:51;;;;;;;5.38;2.05;;;;;;;26.31;59.14;100586.78;10369302;28;20061;-65
2023/07/13 05:38:52;;;;;;;8.43;2.63;;;;;;;26.82;57.88;100616.13;10368416;28;20049;-66
2023/07/13 05:43:53;;;;;;;6.85;2.30;;;;;;;27.06;57.07;100619.16;10368374;28;20056;-66
2023/07/13 05:48:54;;;;;;;5.28;2.47;;;;;;;26.70;56.58;100544.69;10367770;28;20041;-66
2023/07/13 05:53:54;;;;;;;7.80;2.35;;;;;;;27.03;55.49;100603.34;10367447;28;20128;-66
2023/07/13 05:58:56;;;;;;;7.97;2.30;;;;;;;27.36;55.70;100593.84;10368361;28;20124;-66
2023/07/13 06:03:57;;;;;;;4.57;2.40;;;;;;;27.63;55.34;100592.72;10367210;28;20065;-66
2023/07/13 06:08:58;;;;;;;4.72;2.20;;;;;;;28.07;54.18;100590.16;10367107;28;20038;-66
2023/07/13 06:13:59;;;;;;;4.88;2.00;;;;;;;27.60;54.49;100583.16;10367487;28;20413;-66
2023/07/13 06:19:00;;;;;;;3.55;2.10;;;;;;;27.46;54.06;100593.00;10366293;28;20034;-67
2023/07/13 06:24:00;;;;;;;6.32;1.90;;;;;;;27.26;53.54;100580.22;10366671;28;20042;-66
2023/07/13 06:29:01;;;;;;;4.80;1.58;;;;;;;27.27;52.03;100582.66;10366814;28;20095;-66
2023/07/13 06:34:02;;;;;;;5.28;1.90;;;;;;;27.56;51.48;100584.00;10366288;28;20053;-66
2023/07/13 06:39:03;;;;;;;5.10;1.95;;;;;;;27.82;50.32;100571.13;10366316;28;20042;-67
2023/07/13 06:44:03;;;;;;;5.47;2.05;;;;;;;27.91;49.63;100581.22;10366306;28;20068;-66
2023/07/13 06:49:04;;;;;;;5.68;2.00;;;;;;;27.65;49.76;100525.84;10366568;28;20042;-66
2023/07/13 06:54:05;;;;;;;10.65;2.03;;;;;;;28.17;49.70;100576.47;10365671;28;20497;-67
2023/07/13 06:59:06;;;;;;;6.00;2.00;;;;;;;28.44;49.70;100578.00;10365744;28;20038;-67
2023/07/13 07:04:06;;;;;;;5.00;2.00;;;;;;;28.63;49.12;100587.22;10367072;28;20044;-66
2023/07/13 07:09:08;;;;;;;3.95;1.88;;;;;;;28.62;47.52;100551.94;10365293;28;20046;-66
2023/07/13 07:14:09;;;;;;;7.17;1.93;;;;;;;28.92;47.77;100574.69;10365343;28;20053;-67
2023/07/13 07:19:10;;;;;;;3.85;1.88;;;;;;;29.22;47.76;100576.41;10365364;28;20050;-67
2023/07/13 07:24:11;;;;;;;3.35;1.90;;;;;;;29.46;47.18;100570.97;10365749;28;20061;-66
2023/07/13 07:29:11;;;;;;;8.77;1.98;;;;;;;29.91;46.66;100566.97;10368776;28;20053;-66
2023/07/13 07:34:12;;;;;;;3.97;1.70;;;;;;;30.06;43.44;100549.53;10372633;28;20095;-66
2023/07/13 07:39:13;;;;;;;3.90;1.77;;;;;;;29.83;42.65;100564.88;10371918;28;20134;-67
2023/07/13 07:44:13;;;;;;;6.20;2.38;;;;;;;29.86;42.77;100556.09;10372391;28;20062;-67
2023/07/13 07:49:14;;;;;;;2.70;1.63;;;;;;;30.10;42.30;100547.03;10371554;28;20069;-67
2023/07/13 07:54:16;;;;;;;4.85;2.00;;;;;;;29.23;42.90;100479.56;10371830;28;20099;-66
2023/07/13 07:59:16;;;;;;;5.38;2.08;;;;;;;29.33;42.58;100562.34;10372178;28;20422;-66
2023/07/13 08:04:17;;;;;;;6.70;2.10;;;;;;;28.98;42.82;100560.69;10370564;28;20038;-67
2023/07/13 08:09:18;;;;;;;3.50;1.77;;;;;;;28.31;42.42;100485.72;10371920;28;20046;-66
2023/07/13 08:14:19;;;;;;;5.15;2.10;;;;;;;28.76;43.65;100560.34;10370595;28;20136;-66
2023/07/13 08:19:19;;;;;;;3.25;1.67;;;;;;;28.42;43.37;100477.22;10370672;28;20046;-66
2023/07/13 08:24:23;;;;;;;3.13;1.73;;;;;;;28.18;43.45;100481.69;10371172;28;20038;-67
2023/07/13 08:29:24;;;;;;;2.50;1.55;;;;;;;28.12;43.56;100485.53;10370567;28;20552;-66
2023/07/13 08:34:24;;;;;;;4.55;2.05;;;;;;;28.32;44.31;100552.91;10369986;28;20053;-66
2023/07/13 08:39:27;;;;;;;5.07;2.00;;;;;;;27.86;43.42;100482.13;10369414;28;20608;-67
2023/07/13 08:44:57;;;;;;;3.97;1.85;;;;;;;28.21;42.48;100542.03;10370459;28;20394;-66
2023/07/13 08:49:57;;;;;;;2.58;1.77;;;;;;;28.41;42.84;100540.31;10370299;28;20038;-66
2023/07/13 08:55:08;;;;;;;13.23;2.17;;;;;;;29.16;41.37;100544.72;10369435;28;20041;-67
2023/07/13 09:00:14;;;;;;;4.93;1.83;;;;;;;29.71;40.93;100528.88;10370132;28;20048;-67
2023/07/13 09:05:29;;;;;;;7.22;2.10;;;;;;;29.96;39.52;100479.25;10370071;28;20062;-66
2023/07/13 09:10:35;;;;;;;4.55;2.03;;;;;;;30.09;39.07;100518.81;10370045;28;20042;-66
2023/07/13 09:15:43;;;;;;;3.65;1.98;;;;;;;29.73;39.28;100527.47;10369177;28;20041;-66
2023/07/13 09:21:02;;;;;;;17.05;2.80;;;;;;;29.82;40.16;100507.66;10368681;28;20055;-67
2023/07/13 09:26:21;;;;;;;2.80;1.70;;;;;;;29.98;38.26;100455.16;10369087;28;20494;-66
2023/07/13 09:31:39;;;;;;;8.50;2.17;;;;;;;30.61;37.87;100506.03;10368916;28;20480;-66
2023/07/13 09:36:40;;;;;;;3.85;2.10;;;;;;;30.25;37.71;100498.34;10369538;28;20478;-66
2023/07/13 09:42:06;;;;;;;2.80;1.73;;;;;;;30.15;36.64;100500.38;10368488;28;20121;-66
2023/07/13 09:47:29;;;;;;;9.88;2.50;;;;;;;30.13;37.62;100502.63;10368575;28;20045;-66
2023/07/13 09:52:51;;;;;;;9.23;2.40;;;;;;;30.42;37.80;100499.75;10367767;28;20490;-67
2023/07/13 09:57:52;;;;;;;5.20;2.10;;;;;;;30.07;38.25;100501.06;10367760;28;20569;-67
2023/07/13 10:03:04;;;;;;;19.83;2.83;;;;;;;29.59;37.63;100444.41;10367214;28;20113;-66
2023/07/13 10:08:07;;;;;;;5.15;1.90;;;;;;;30.33;37.40;100485.91;10367669;28;20041;-65
2023/07/13 10:13:50;;;;;;;5.15;2.65;;;;;;;31.05;36.42;100482.84;10367637;28;20050;-67
2023/07/13 10:19:03;;;;;;;4.10;2.22;;;;;;;31.46;35.74;100486.78;10365863;28;20046;-65
2023/07/13 10:24:14;;;;;;;3.83;2.45;;;;;;;31.50;34.25;100496.88;10367616;28;20129;-66
2023/07/13 10:29:16;;;;;;;3.75;2.47;;;;;;;31.48;34.09;100481.81;10366827;28;20045;-67
2023/07/13 10:34:17;;;;;;;;;;;;;;;31.82;34.91;100481.38;10366550;28;20417;-66
2023/07/13 10:39:22;;;;;;;4.38;2.38;;;;;;;31.35;33.04;100466.94;10364941;28;19927;-67
2023/07/13 10:44:28;;;;;;;6.05;2.42;;;;;;;31.22;35.27;100463.03;10364091;28;20497;-68
2023/07/13 10:49:31;;;;;;;5.05;2.05;;;;;;;31.33;33.96;100441.72;10363409;28;20046;-69
2023/07/13 10:54:34;;;;;;;12.75;2.40;;;;;;;30.96;33.96;100470.94;10366628;28;20042;-66
2023/07/13 10:59:35;;;;;;;9.93;2.80;;;;;;;30.96;33.80;100448.97;10348567;28;20046;-66
2023/07/13 11:04:48;;;;;;;11.52;2.70;;;;;;;30.66;34.19;100321.44;10356339;28;20046;-67
2023/07/13 11:09:52;;;;;;;18.83;2.80;;;;;;;31.32;33.44;100382.44;10360956;28;20484;-67
2023/07/13 11:14:55;;;;;;;7.25;2.80;;;;;;;31.80;32.76;100432.25;10352284;28;20125;-67
2023/07/13 11:20:16;;;;;;;4.22;2.33;;;;;;;31.97;33.62;100417.88;10351139;28;20144;-67
2023/07/13 11:25:29;;;;;;;7.63;2.80;;;;;;;31.79;32.50;100374.88;10368909;28;20513;-68
2023/07/13 11:30:29;;;;;;;;;;;;;;;32.33;33.70;100414.28;10369082;28;20057;-67
2023/07/13 11:35:33;;;;;;;6.22;2.42;;;;;;;31.78;32.29;100398.78;10371958;28;19929;-66
2023/07/13 11:40:34;;;;;;;7.50;2.45;;;;;;;31.99;32.01;100390.13;10371085;28;20072;-67
2023/07/13 11:45:34;;;;;;;7.15;2.83;;;;;;;32.08;32.67;100384.69;10369718;28;20088;-67
2023/07/13 11:50:37;;;;;;;5.45;2.47;;;;;;;32.14;31.99;100380.69;10369930;28;20042;-67
2023/07/13 11:55:38;;;;;;;5.88;2.22;;;;;;;32.12;32.12;100383.75;10370847;28;20571;-67
2023/07/13 12:00:41;;;;;;;53.58;5.15;;;;;;;31.91;33.14;100390.84;10371791;28;20497;-67
2023/07/13 12:06:00;;;;;;;7.65;2.50;;;;;;;32.14;31.95;100398.00;10371040;28;20053;-66
2023/07/13 12:11:07;;;;;;;4.57;2.03;;;;;;;31.99;32.25;100379.94;10370875;28;20033;-65
2023/07/13 12:16:32;;;;;;;8.18;2.50;;;;;;;31.78;31.54;100335.59;10370211;28;20421;-67
2023/07/13 12:21:39;;;;;;;4.05;2.35;;;;;;;32.12;31.10;100381.00;10365603;28;20512;-67
2023/07/13 12:26:41;;;;;;;8.35;3.20;;;;;;;32.25;31.64;100360.09;10361339;28;20054;-66
2023/07/13 12:31:44;;;;;;;35.75;4.65;;;;;;;32.34;32.56;100360.13;10365641;28;20050;-67
2023/07/13 12:37:11;;;;;;;3.88;2.47;;;;;;;32.54;31.40;100375.31;10364494;28;20147;-65
2023/07/13 12:42:23;;;;;;;12.60;3.10;;;;;;;32.43;31.86;100358.25;10366403;28;20057;-65
2023/07/13 12:47:25;;;;;;;6.85;2.70;;;;;;;32.22;31.09;100367.03;10365268;28;20071;-66
2023/07/13 12:52:35;;;;;;;3.42;2.53;;;;;;;31.88;31.08;100315.31;10369549;28;20050;-66
2023/07/13 12:57:42;;;;;;;5.15;2.55;;;;;;;32.17;30.35;100374.56;10362291;28;20058;-65
2023/07/13 13:02:44;;;;;;;5.60;2.22;;;;;;;32.36;31.40;100353.19;10367458;28;20041;-66
2023/07/13 13:07:47;;;;;;;5.63;2.38;;;;;;;32.22;31.31;100342.28;10367520;28;20125;-66
2023/07/13 13:12:48;;;;;;;5.32;2.67;;;;;;;32.36;31.19;100353.19;10347722;28;20099;-66
2023/07/13 13:17:49;;;;;;;4.13;2.38;;;;;;;31.84;31.00;100289.59;10367494;28;20459;-66
2023/07/13 13:22:50;;;;;;;7.82;2.63;;;;;;;31.99;31.24;100304.94;10366442;28;20046;-66
2023/07/13 13:27:51;;;;;;;13.38;3.50;;;;;;;31.69;31.41;100254.28;10367704;28;20046;-67
2023/07/13 13:32:51;;;;;;;9.45;2.88;;;;;;;32.20;31.21;100339.03;10367150;28;20066;-66
2023/07/13 13:37:52;;;;;;;18.73;4.70;;;;;;;31.82;31.33;100328.38;10368110;28;20050;-66
2023/07/13 13:42:55;;;;;;;6.93;2.75;;;;;;;31.91;31.32;100333.16;10363944;28;20106;-66
2023/07/13 13:47:55;;;;;;;5.40;2.70;;;;;;;31.94;31.20;100327.03;10368345;28;20037;-66
2023/07/13 13:52:56;;;;;;;54.03;4.88;;;;;;;31.74;31.11;100296.16;10368133;28;20038;-67
2023/07/13 13:57:57;;;;;;;4.55;2.67;;;;;;;31.78;30.98;100305.41;10368252;28;20070;-65
2023/07/13 14:02:59;;;;;;;5.65;2.60;;;;;;;31.84;31.55;100328.88;10368083;28;20038;-66
2023/07/13 14:08:00;;;;;;;5.15;2.22;;;;;;;31.60;31.13;100317.38;10367943;28;20034;-65
2023/07/13 14:13:01;;;;;;;5.78;2.55;;;;;;;31.48;31.46;100292.38;10367296;28;20132;-65
2023/07/13 14:18:01;;;;;;;16.40;3.75;;;;;;;31.61;31.48;100322.53;10368365;28;20136;-64
2023/07/13 14:23:02;;;;;;;39.38;5.68;;;;;;;31.52;31.66;100316.16;10365768;28;20034;-65
2023/07/13 14:28:24;;;;;;;9.68;2.95;;;;;;;31.53;31.35;100315.06;10367097;28;20517;-65
2023/07/13 14:33:25;;;;;;;10.10;2.60;;;;;;;31.43;31.30;100328.19;10366195;28;20057;-64
2023/07/13 14:38:26;;;;;;;5.53;2.72;;;;;;;31.22;30.96;100314.06;10365793;28;20038;-65
2023/07/13 14:43:29;;;;;;;9.13;2.90;;;;;;;31.24;31.31;100331.03;10366232;28;20042;-65
2023/07/13 14:48:30;;;;;;;;;;;;;;;31.38;31.45;100340.91;10366757;28;20394;-65
2023/07/13 14:53:30;;;;;;;12.60;3.13;;;;;;;30.62;30.58;100258.16;10366465;28;19917;-65
2023/07/13 14:58:31;;;;;;;10.48;3.53;;;;;;;30.76;31.51;100299.31;10364190;28;20054;-65
2023/07/13 15:03:33;;;;;;;4.57;2.65;;;;;;;30.95;31.42;100336.81;10359823;28;20038;-67
2023/07/13 15:08:34;;;;;;;10.98;3.00;;;;;;;30.80;31.49;100319.53;10359404;28;20037;-65
2023/07/13 15:13:35;;;;;;;5.35;2.80;;;;;;;30.82;31.59;100322.81;10359533;28;20045;-65
2023/07/13 15:18:39;;;;;;;7.10;3.10;;;;;;;30.59;33.29;100321.03;10359565;28;20042;-65
2023/07/13 15:23:40;;;;;;;8.50;3.25;;;;;;;30.45;35.44;100332.78;10359481;28;20034;-67
2023/07/13 15:28:43;;;;;;;17.30;4.18;;;;;;;29.44;36.88;100207.31;10359807;28;20042;-64
2023/07/13 15:33:44;;;;;;;17.48;3.75;;;;;;;29.90;37.64;100313.38;10359383;28;20153;-66
2023/07/13 15:38:46;;;;;;;17.88;3.22;;;;;;;29.80;38.58;100340.94;10359489;28;20046;-65
2023/07/13 15:43:51;;;;;;;21.95;4.93;;;;;;;29.48;39.63;100331.50;10358766;28;20600;-65
2023/07/13 15:48:54;;;;;;;14.98;4.70;;;;;;;28.93;40.18;100281.00;10360061;28;20065;-64
2023/07/13 15:53:58;;;;;;;15.90;5.07;;;;;;;29.06;41.06;100341.31;10366053;28;20140;-66
2023/07/13 15:58:58;;;;;;;10.13;4.10;;;;;;;28.87;41.45;100345.91;10364415;28;20083;-67
2023/07/13 16:03:59;;;;;;;12.32;3.53;;;;;;;28.62;42.14;100341.50;10366203;28;20038;-66
2023/07/13 16:09:01;;;;;;;14.80;3.58;;;;;;;28.47;42.90;100349.84;10365318;28;20037;-64
2023/07/13 16:14:02;;;;;;;25.70;4.57;;;;;;;27.54;43.43;100238.56;10365182;28;20046;-64
2023/07/13 16:19:04;;;;;;;29.40;4.00;;;;;;;28.00;44.40;100343.91;10364643;28;20079;-64
2023/07/13 16:24:14;;;;;;;10.67;3.40;;;;;;;27.92;44.62;100363.63;10365184;28;20041;-66
2023/07/13 16:29:26;;;;;;;11.75;2.78;;;;;;;27.36;46.14;100301.94;10365168;28;20042;-65
2023/07/13 16:34:27;;;;;;;36.43;3.47;;;;;;;27.55;45.74;100367.59;10364421;28;20053;-65
2023/07/13 16:39:29;;;;;;;13.55;3.75;;;;;;;27.38;46.32;100373.44;10365344;28;20049;-65
2023/07/13 16:44:31;;;;;;;16.00;3.78;;;;;;;27.14;46.85;100367.75;10371034;28;20038;-64
2023/07/13 16:49:36;;;;;;;34.30;5.05;;;;;;;26.89;48.10;100367.81;10370447;28;20555;-64
2023/07/13 16:54:38;;;;;;;18.65;4.22;;;;;;;26.82;48.14;100388.00;10369949;28;20127;-64
2023/07/13 16:59:40;;;;;;;26.38;5.22;;;;;;;26.51;49.34;100372.78;10369102;28;20078;-64
2023/07/13 17:04:41;;;;;;;34.67;6.50;;;;;;;26.37;50.72;100388.81;10369244;28;20608;-64
2023/07/13 17:09:45;;;;;;;34.55;6.68;;;;;;;26.12;51.85;100400.50;10367865;28;20081;-65
2023/07/13 17:14:49;;;;;;;33.72;7.47;;;;;;;25.73;53.23;100390.03;10367386;28;20050;-64
2023/07/13 17:19:52;;;;;;;37.47;6.20;;;;;;;25.60;55.88;100390.53;10362861;28;20102;-67
2023/07/13 17:24:52;;;;;;;18.40;5.68;;;;;;;25.21;55.42;100377.31;10360231;28;20486;-66
2023/07/13 17:29:54;;;;;;;25.90;7.68;;;;;;;24.58;56.80;100341.84;10366725;28;20061;-67
2023/07/13 17:34:55;;;;;;;105.07;54.15;;;;;;;24.80;58.62;100423.25;10366927;28;20045;-65
2023/07/13 17:39:57;;;;;;;105.82;57.97;;;;;;;24.66;59.42;100439.16;10367679;28;20617;-66
2023/07/13 17:44:57;;;;;;;115.03;62.53;;;;;;;24.32;59.90;100414.94;10365296;28;20125;-66
2023/07/13 17:49:58;;;;;;;78.78;43.40;;;;;;;24.19;61.47;100420.75;10366812;28;20045;-67
2023/07/13 17:55:03;;;;;;;60.15;29.15;;;;;;;24.21;62.28;100451.19;10366430;28;20412;-66
2023/07/13 18:00:26;;;;;;;42.33;21.52;;;;;;;23.96;63.30;100427.34;10365354;28;20066;-67
2023/07/13 18:05:24;;;;;;;36.72;15.18;;;;;;;23.74;64.32;100416.47;10366843;28;20049;-65
2023/07/13 18:10:25;;;;;;;34.13;14.48;;;;;;;23.76;65.44;100437.94;10365208;28;20045;-66
2023/07/13 18:15:30;;;;;;;18.88;8.07;;;;;;;23.63;65.83;100425.53;10364568;28;20145;-66
2023/07/13 18:20:32;;;;;;;21.23;6.82;;;;;;;23.29;65.15;100371.44;10364172;28;20133;-66
2023/07/13 18:25:33;;;;;;;18.38;8.90;;;;;;;23.56;66.74;100442.00;10365588;28;20069;-66
2023/07/13 18:30:35;;;;;;;15.75;7.45;;;;;;;23.05;67.47;100389.81;10367321;28;20061;-66
2023/07/13 18:35:38;;;;;;;14.70;6.88;;;;;;;22.82;67.37;100362.88;10367276;28;20061;-66
2023/07/13 18:40:38;;;;;;;19.13;7.22;;;;;;;23.14;67.33;100431.66;10365673;28;20595;-67
2023/07/13 18:45:40;;;;;;;13.23;7.07;;;;;;;23.13;69.30;100443.59;10363770;28;20498;-66
2023/07/13 18:50:43;;;;;;;22.40;7.22;;;;;;;22.47;70.25;100364.81;10365268;28;20455;-66
2023/07/13 18:55:45;;;;;;;17.63;6.73;;;;;;;22.41;71.02;100376.63;10365274;28;20463;-67
2023/07/13 19:00:49;;;;;;;11.55;5.10;;;;;;;22.66;72.05;100448.50;10364809;28;20341;-66
2023/07/13 19:05:50;;;;;;;20.17;7.30;;;;;;;22.41;72.87;100435.34;10364010;28;20543;-66
2023/07/13 19:10:53;;;;;;;11.07;6.40;;;;;;;22.17;73.42;100438.19;10364831;28;20034;-66
2023/07/13 19:15:55;;;;;;;16.90;7.03;;;;;;;22.15;74.24;100459.19;10365626;28;20046;-66
2023/07/13 19:20:59;;;;;;;18.08;6.78;;;;;;;22.02;74.50;100462.22;10366765;28;20046;-66
2023/07/13 19:26:28;;;;;;;15.57;7.18;;;;;;;22.16;78.07;100468.94;10371132;28;20482;-66
2023/07/13 19:31:33;;;;;;;15.90;7.43;;;;;;;22.06;76.24;100474.19;10371870;28;20076;-67
2023/07/13 19:36:35;;;;;;;19.30;7.68;;;;;;;21.68;75.11;100393.63;10373333;28;20095;-66
2023/07/13 19:41:37;;;;;;;23.10;7.35;;;;;;;21.98;75.08;100471.84;10372589;28;20041;-66
2023/07/13 19:46:38;;;;;;;20.92;8.02;;;;;;;21.56;75.10;100399.06;10371975;28;20046;-66
2023/07/13 19:51:41;;;;;;;13.02;6.15;;;;;;;21.93;75.34;100469.03;10372342;28;20406;-66
2023/07/13 19:56:42;;;;;;;10.48;5.63;;;;;;;21.50;75.27;100400.03;10372390;28;20054;-66
2023/07/13 20:01:43;;;;;;;19.38;5.68;;;;;;;21.98;75.87;100469.97;10372559;28;20045;-66
2023/07/13 20:06:45;;;;;;;14.73;6.03;;;;;;;21.93;76.44;100472.59;10371833;28;20046;-66
2023/07/13 20:11:47;;;;;;;19.27;5.93;;;;;;;21.71;76.92;100452.63;10369983;28;20038;-66
2023/07/13 20:16:49;;;;;;;10.95;5.47;;;;;;;21.79;77.47;100471.19;10371550;28;20087;-67
2023/07/13 20:21:50;;;;;;;15.90;5.30;;;;;;;21.81;77.06;100477.19;10371106;28;20113;-66
2023/07/13 20:26:51;;;;;;;22.20;5.55;;;;;;;21.79;77.38;100469.31;10370320;28;20130;-66
2023/07/13 20:31:52;;;;;;;13.88;5.95;;;;;;;21.76;78.43;100461.69;10370216;28;20058;-66
2023/07/13 20:36:53;;;;;;;23.48;6.50;;;;;;;21.75;78.83;100459.22;10369578;28;20042;-66
2023/07/13 20:41:54;;;;;;;12.65;5.15;;;;;;;21.51;78.00;100415.19;10370323;28;20049;-66
2023/07/13 20:46:55;;;;;;;14.93;7.10;;;;;;;21.65;77.88;100446.31;10370294;28;20048;-66
2023/07/13 20:51:57;;;;;;;14.98;5.43;;;;;;;21.63;76.22;100427.63;10369409;28;20042;-66
2023/07/13 20:56:58;;;;;;;14.33;5.33;;;;;;;21.76;75.95;100453.56;10368469;28;20096;-66
2023/07/13 21:01:59;;;;;;;19.33;5.15;;;;;;;21.14;76.08;100359.53;10369911;28;20068;-66
2023/07/13 21:07:00;;;;;;;11.80;5.05;;;;;;;21.12;76.19;100372.47;10368589;28;20042;-66
2023/07/13 21:12:00;;;;;;;9.02;4.70;;;;;;;21.51;76.52;100450.31;10369659;28;20038;-66
2023/07/13 21:17:01;;;;;;;17.10;5.15;;;;;;;20.91;77.07;100368.50;10369058;28;20050;-66
2023/07/13 21:22:02;;;;;;;11.55;4.80;;;;;;;21.34;77.39;100459.13;10369265;28;20379;-67
2023/07/13 21:27:03;;;;;;;9.00;5.00;;;;;;;21.20;78.30;100444.22;10368085;28;20061;-66
2023/07/13 21:32:13;;;;;;;11.13;5.15;;;;;;;20.82;79.12;100394.22;10369346;28;20088;-66
2023/07/13 21:37:22;;;;;;;14.75;5.28;;;;;;;21.05;80.07;100463.59;10368834;28;20405;-66
2023/07/13 21:42:23;;;;;;;12.52;4.85;;;;;;;20.82;78.84;100440.09;10368313;28;20497;-66
2023/07/13 21:47:24;;;;;;;21.85;5.05;;;;;;;20.87;79.26;100450.19;10367446;28;20178;-66
2023/07/13 21:52:25;;;;;;;19.80;5.65;;;;;;;20.89;80.01;100443.50;10368867;28;20116;-66
2023/07/13 21:57:28;;;;;;;13.63;4.90;;;;;;;20.53;80.21;100390.53;10367670;28;20041;-66
2023/07/13 22:02:29;;;;;;;8.32;4.53;;;;;;;20.92;80.59;100455.72;10368184;28;20052;-66
2023/07/13 22:07:30;;;;;;;12.40;4.68;;;;;;;20.69;80.85;100437.63;10366079;28;20551;-66
2023/07/13 22:12:30;;;;;;;13.80;4.60;;;;;;;20.80;81.07;100453.00;10367561;28;20041;-66
2023/07/13 22:17:31;;;;;;;12.48;4.70;;;;;;;20.65;81.16;100426.47;10367636;28;20045;-66
2023/07/13 22:22:32;;;;;;;17.45;5.63;;;;;;;20.66;81.88;100438.06;10367075;28;20042;-66
2023/07/13 22:27:33;;;;;;;21.30;4.80;;;;;;;20.22;82.12;100372.72;10368056;28;20045;-67
2023/07/13 22:32:34;;;;;;;8.15;3.80;;;;;;;20.58;82.49;100449.19;10366873;28;20558;-67
2023/07/13 22:37:35;;;;;;;8.32;4.72;;;;;;;20.03;83.02;100372.78;10367795;28;20126;-66
2023/07/13 22:42:37;;;;;;;13.15;4.85;;;;;;;20.32;84.07;100432.34;10366277;28;20505;-66
2023/07/13 22:47:40;;;;;;;;;;;;;;;20.53;83.57;100441.81;10366465;28;20136;-66
2023/07/13 22:52:42;;;;;;;6.18;4.38;;;;;;;19.99;84.14;100408.53;10367134;28;19925;-66
2023/07/13 22:57:49;;;;;;;12.45;4.63;;;;;;;19.55;86.40;100354.75;10365796;28;20046;-66
2023/07/13 23:02:50;;;;;;;11.23;4.45;;;;;;;20.05;85.35;100426.50;10366578;28;20041;-66
2023/07/13 23:07:53;;;;;;;7.18;4.75;;;;;;;20.02;85.67;100426.97;10365560;28;20046;-66